createdAt,value
2024-04-22T00:00:07.195Z,51.54
2024-04-22T00:02:33.728Z,51.95
2024-04-22T00:05:00.303Z,52.49
2024-04-22T00:07:26.864Z,52.16
2024-04-22T00:09:53.316Z,53.21
2024-04-22T00:12:19.783Z,52.45
2024-04-22T00:14:46.450Z,52.84
2024-04-22T00:17:12.951Z,53.31
2024-04-22T00:19:39.500Z,52.68
2024-04-22T00:22:05.999Z,52.84
2024-04-22T00:24:32.476Z,51.77
2024-04-22T00:26:58.979Z,52.68
2024-04-22T00:29:25.429Z,52.31
2024-04-22T00:31:51.890Z,52.94
2024-04-22T00:34:18.391Z,53.00
2024-04-22T00:36:44.860Z,53.38
2024-04-22T00:39:11.417Z,53.13
2024-04-22T00:41:37.889Z,51.97
2024-04-22T00:44:04.625Z,52.73
2024-04-22T00:46:31.315Z,53.28
2024-04-22T00:48:58.022Z,53.46
2024-04-22T00:51:24.730Z,53.51
2024-04-22T00:53:51.713Z,53.45
2024-04-22T00:56:18.625Z,52.35
2024-04-22T00:58:46.692Z,52.54
2024-04-22T01:01:13.720Z,52.80
2024-04-22T01:03:40.351Z,52.43
2024-04-22T01:06:06.892Z,52.40
2024-04-22T01:08:33.370Z,51.98
2024-04-22T01:11:00.009Z,52.49
2024-04-22T01:13:26.595Z,53.77
2024-04-22T01:15:53.128Z,54.91
2024-04-22T01:18:20.342Z,53.82
2024-04-22T01:20:47.199Z,53.00
2024-04-22T01:23:13.722Z,52.34
2024-04-22T01:25:44.168Z,52.32
2024-04-22T01:28:10.666Z,52.38
2024-04-22T01:30:37.154Z,52.17
2024-04-22T01:33:03.948Z,52.22
2024-04-22T01:35:30.591Z,52.66
2024-04-22T01:37:57.101Z,53.09
2024-04-22T01:40:23.565Z,52.96
2024-04-22T01:42:50.040Z,53.40
2024-04-22T01:45:16.550Z,53.65
2024-04-22T01:47:43.073Z,53.33
2024-04-22T01:50:10.107Z,53.42
2024-04-22T01:52:36.629Z,53.15
2024-04-22T01:55:03.156Z,53.52
2024-04-22T01:57:29.631Z,53.62
2024-04-22T01:59:56.152Z,53.96
2024-04-22T02:02:22.664Z,54.83
2024-04-22T02:04:49.167Z,54.28
2024-04-22T02:07:15.670Z,54.22
2024-04-22T02:09:42.158Z,53.76
2024-04-22T02:12:08.685Z,53.77
2024-04-22T02:14:36.944Z,54.61
2024-04-22T02:17:03.549Z,55.00
2024-04-22T02:19:30.103Z,55.29
2024-04-22T02:21:56.566Z,56.81
2024-04-22T02:24:23.055Z,57.64
2024-04-22T02:26:49.523Z,57.11
2024-04-22T02:29:15.991Z,56.59
2024-04-22T02:31:43.274Z,56.05
2024-04-22T02:34:09.787Z,55.53
2024-04-22T02:36:36.345Z,54.42
2024-04-22T02:39:02.832Z,54.57
2024-04-22T02:41:29.310Z,55.33
2024-04-22T02:43:55.776Z,56.39
2024-04-22T02:46:22.284Z,56.21
2024-04-22T02:48:48.744Z,55.08
2024-04-22T02:51:15.212Z,54.62
2024-04-22T02:53:41.658Z,54.98
2024-04-22T02:56:08.177Z,54.72
2024-04-22T02:58:34.894Z,54.31
2024-04-22T03:01:06.093Z,54.88
2024-04-22T03:03:32.704Z,55.06
2024-04-22T03:05:59.192Z,55.09
2024-04-22T03:08:25.676Z,54.95
2024-04-22T03:10:52.773Z,55.39
2024-04-22T03:13:19.337Z,55.40
2024-04-22T03:15:45.815Z,55.40
2024-04-22T03:18:12.274Z,55.41
2024-04-22T03:20:38.799Z,55.75
2024-04-22T03:23:05.313Z,54.98
2024-04-22T03:25:31.813Z,55.15
2024-04-22T03:27:58.302Z,55.55
2024-04-22T03:30:24.796Z,55.11
2024-04-22T03:32:51.262Z,54.84
2024-04-22T03:35:18.826Z,55.74
2024-04-22T03:37:45.531Z,56.37
2024-04-22T03:40:12.029Z,55.84
2024-04-22T03:42:38.878Z,55.60
2024-04-22T03:45:05.815Z,55.39
2024-04-22T03:47:51.383Z,55.18
2024-04-22T03:50:17.891Z,55.20
2024-04-22T03:52:44.382Z,55.23
2024-04-22T03:55:10.969Z,55.27
2024-04-22T03:57:37.468Z,55.54
2024-04-22T04:00:04.132Z,55.60
2024-04-22T04:02:31.273Z,55.07
2024-04-22T04:04:57.803Z,55.94
2024-04-22T04:07:24.328Z,55.54
2024-04-22T04:09:50.898Z,56.01
2024-04-22T04:12:17.486Z,55.65
2024-04-22T04:14:43.997Z,54.56
2024-04-22T04:17:11.484Z,53.77
2024-04-22T04:19:38.085Z,54.17
2024-04-22T04:22:04.812Z,54.50
2024-04-22T04:24:31.312Z,54.34
2024-04-22T04:26:57.848Z,53.55
2024-04-22T04:29:24.362Z,54.33
2024-04-22T04:31:50.864Z,54.45
2024-04-22T04:34:17.419Z,53.24
2024-04-22T04:36:43.879Z,53.51
2024-04-22T04:39:11.082Z,53.59
2024-04-22T04:41:37.593Z,54.52
2024-04-22T04:44:04.106Z,53.38
2024-04-22T04:46:30.566Z,52.34
2024-04-22T04:48:57.055Z,52.24
2024-04-22T04:51:23.531Z,53.43
2024-04-22T04:53:50.045Z,52.62
2024-04-22T04:56:16.864Z,52.45
2024-04-22T04:58:43.436Z,52.19
2024-04-22T05:01:10.014Z,52.10
2024-04-22T05:03:36.614Z,51.94
2024-04-22T05:06:03.615Z,52.35
2024-04-22T05:08:30.133Z,51.67
2024-04-22T05:10:59.044Z,52.15
2024-04-22T05:13:25.768Z,50.77
2024-04-22T05:15:52.273Z,51.21
2024-04-22T05:18:18.813Z,51.33
2024-04-22T05:20:45.652Z,52.51
2024-04-22T05:23:12.172Z,52.21
2024-04-22T05:25:38.698Z,51.45
2024-04-22T05:28:05.523Z,52.09
2024-04-22T05:30:32.040Z,51.28
2024-04-22T05:33:05.183Z,51.90
2024-04-22T05:35:50.430Z,50.58
2024-04-22T05:38:16.875Z,50.89
2024-04-22T05:40:43.392Z,51.43
2024-04-22T05:43:09.927Z,50.76
2024-04-22T05:45:36.480Z,50.50
2024-04-22T05:48:03.085Z,50.54
2024-04-22T05:50:29.658Z,50.44
2024-04-22T05:52:56.121Z,51.27
2024-04-22T05:55:22.653Z,51.32
2024-04-22T05:57:49.598Z,51.31
2024-04-22T06:00:16.226Z,50.62
2024-04-22T06:02:42.962Z,51.82
2024-04-22T06:05:09.517Z,51.33
2024-04-22T06:07:37.334Z,51.95
2024-04-22T06:10:03.927Z,51.62
2024-04-22T06:12:30.441Z,50.68
2024-04-22T06:14:56.905Z,50.37
2024-04-22T06:17:23.430Z,51.52
2024-04-22T06:19:50.936Z,51.81
2024-04-22T06:22:17.966Z,51.05
2024-04-22T06:24:44.453Z,51.40
2024-04-22T06:27:11.683Z,51.88
2024-04-22T06:29:38.313Z,50.54
2024-04-22T06:32:05.525Z,50.11
2024-04-22T06:34:32.358Z,51.30
2024-04-22T06:36:58.822Z,50.91
2024-04-22T06:39:25.562Z,50.47
2024-04-22T06:41:52.005Z,51.27
2024-04-22T06:44:18.469Z,51.29
2024-04-22T06:46:45.170Z,51.04
2024-04-22T06:49:11.725Z,51.02
2024-04-22T06:51:38.179Z,50.70
2024-04-22T06:54:04.958Z,50.79
2024-04-22T06:56:31.541Z,50.12
2024-04-22T06:58:58.028Z,49.83
2024-04-22T07:01:31.644Z,49.71
2024-04-22T07:04:05.940Z,48.89
2024-04-22T07:06:32.787Z,48.18
2024-04-22T07:08:59.719Z,49.28
2024-04-22T07:11:26.273Z,49.38
2024-04-22T07:13:52.721Z,48.92
2024-04-22T07:16:21.014Z,49.08
2024-04-22T07:21:14.079Z,47.91
2024-04-22T07:23:40.539Z,47.33
2024-04-22T07:26:07.058Z,48.55
2024-04-22T07:28:33.798Z,49.36
2024-04-22T07:31:00.636Z,48.91
2024-04-22T07:33:30.796Z,48.27
2024-04-22T07:36:09.858Z,49.21
2024-04-22T07:38:36.809Z,49.76
2024-04-22T07:41:03.616Z,49.79
2024-04-22T07:43:30.089Z,51.37
2024-04-22T07:45:56.548Z,49.65
2024-04-22T07:48:23.023Z,48.48
2024-04-22T07:50:49.533Z,46.05
2024-04-22T07:53:16.236Z,46.80
2024-04-22T07:55:43.001Z,47.13
2024-04-22T07:58:09.936Z,49.17
2024-04-22T08:00:36.998Z,48.84
2024-04-22T08:03:04.264Z,49.15
2024-04-22T08:05:31.198Z,50.20
2024-04-22T08:08:00.762Z,51.34
2024-04-22T08:10:29.022Z,48.60
2024-04-22T08:12:55.695Z,48.25
2024-04-22T08:15:22.343Z,48.48
2024-04-22T08:17:49.302Z,47.35
2024-04-22T08:20:16.164Z,46.79
2024-04-22T08:22:42.860Z,47.70
2024-04-22T08:25:09.491Z,49.83
2024-04-22T08:27:35.977Z,49.73
2024-04-22T08:30:02.601Z,48.44
2024-04-22T08:32:29.441Z,47.82
2024-04-22T08:34:56.494Z,46.32
2024-04-22T08:37:23.076Z,44.75
2024-04-22T08:39:49.544Z,46.91
2024-04-22T08:42:16.564Z,46.70
2024-04-22T08:44:43.090Z,47.67
2024-04-22T08:47:09.634Z,48.00
2024-04-22T08:49:36.132Z,47.77
2024-04-22T08:52:04.015Z,46.42
2024-04-22T08:54:32.897Z,48.03
2024-04-22T08:56:59.392Z,50.31
2024-04-22T08:59:33.744Z,52.41
2024-04-22T09:02:06.782Z,53.90
2024-04-22T09:04:33.422Z,49.64
2024-04-22T09:07:03.057Z,47.66
2024-04-22T09:09:41.843Z,44.91
2024-04-22T09:12:19.927Z,43.31
2024-04-22T09:14:46.732Z,42.26
2024-04-22T09:17:17.745Z,41.03
2024-04-22T09:19:46.611Z,40.62
2024-04-22T09:22:14.907Z,40.63
2024-04-22T09:24:41.876Z,39.38
2024-04-22T09:27:08.597Z,37.68
2024-04-22T09:29:44.022Z,36.94
2024-04-22T09:32:13.900Z,37.08
2024-04-22T09:34:41.691Z,36.90
2024-04-22T09:37:08.836Z,37.61
2024-04-22T09:39:37.373Z,39.37
2024-04-22T09:42:04.493Z,42.47
2024-04-22T09:44:31.812Z,44.44
2024-04-22T09:46:59.811Z,46.02
2024-04-22T09:49:30.112Z,44.28
2024-04-22T09:51:58.180Z,43.42
2024-04-22T09:54:24.925Z,43.04
2024-04-22T09:56:53.502Z,44.01
2024-04-22T09:59:20.874Z,42.82
2024-04-22T10:01:47.786Z,40.53
2024-04-22T10:04:14.955Z,40.31
2024-04-22T10:06:42.237Z,41.83
2024-04-22T10:09:08.932Z,42.18
2024-04-22T10:11:36.962Z,42.99
2024-04-22T10:14:15.195Z,50.70
2024-04-22T10:16:42.109Z,57.87
2024-04-22T10:19:10.002Z,57.15
2024-04-22T10:21:42.901Z,57.98
2024-04-22T10:24:09.413Z,59.28
2024-04-22T10:26:47.691Z,60.24
2024-04-22T10:29:18.913Z,59.46
2024-04-22T10:31:45.632Z,59.65
2024-04-22T10:34:12.243Z,60.78
2024-04-22T10:36:38.836Z,57.95
2024-04-22T10:39:05.393Z,55.83
2024-04-22T10:41:32.415Z,56.48
2024-04-22T10:43:58.937Z,54.24
2024-04-22T10:46:25.502Z,55.47
2024-04-22T10:48:52.609Z,55.59
2024-04-22T10:51:19.342Z,54.14
2024-04-22T10:53:45.804Z,53.27
2024-04-22T10:56:12.527Z,52.47
2024-04-22T10:58:39.467Z,50.15
2024-04-22T11:01:06.157Z,54.77
2024-04-22T11:03:32.741Z,56.82
2024-04-22T11:06:05.489Z,55.52
2024-04-22T11:08:32.076Z,59.36
2024-04-22T11:10:59.066Z,60.94
2024-04-22T11:13:25.919Z,60.84
2024-04-22T11:15:52.434Z,60.88
2024-04-22T11:18:21.231Z,61.91
2024-04-22T11:20:48.516Z,61.11
2024-04-22T11:23:15.100Z,61.00
2024-04-22T11:25:43.243Z,59.32
2024-04-22T11:28:09.771Z,61.72
2024-04-22T11:30:37.773Z,61.21
2024-04-22T11:33:06.061Z,60.98
2024-04-22T11:35:38.980Z,59.56
2024-04-22T11:38:06.001Z,59.38
2024-04-22T11:40:32.495Z,58.45
2024-04-22T11:42:58.988Z,58.89
2024-04-22T11:45:25.460Z,60.14
2024-04-22T11:47:52.141Z,60.92
2024-04-22T11:50:18.645Z,62.28
2024-04-22T11:52:45.365Z,62.18
2024-04-22T11:55:11.942Z,61.98
2024-04-22T11:57:38.472Z,62.23
2024-04-22T12:00:05.545Z,63.37
2024-04-22T12:02:32.030Z,60.41
2024-04-22T12:04:59.085Z,62.08
2024-04-22T12:07:25.765Z,59.49
2024-04-22T12:09:52.427Z,59.91
2024-04-22T12:12:18.911Z,58.42
2024-04-22T12:14:45.434Z,57.31
2024-04-22T12:17:12.802Z,58.24
2024-04-22T12:19:39.398Z,57.07
2024-04-22T12:22:05.893Z,55.89
2024-04-22T12:24:32.357Z,55.61
2024-04-22T12:27:00.085Z,57.39
2024-04-22T12:29:27.447Z,56.57
2024-04-22T12:31:54.011Z,57.86
2024-04-22T12:34:20.707Z,57.09
2024-04-22T12:36:47.322Z,55.93
2024-04-22T12:39:13.823Z,58.01
2024-04-22T12:41:40.350Z,59.45
2024-04-22T12:44:07.011Z,60.34
2024-04-22T12:46:52.356Z,59.80
2024-04-22T12:49:37.480Z,60.59
2024-04-22T12:52:04.185Z,59.51
2024-04-22T12:54:30.672Z,57.64
2024-04-22T12:56:57.188Z,59.62
2024-04-22T12:59:23.625Z,57.08
2024-04-22T13:01:50.246Z,56.70
2024-04-22T13:04:16.810Z,56.34
2024-04-22T13:06:43.339Z,56.84
2024-04-22T13:09:11.861Z,55.94
2024-04-22T13:11:40.540Z,54.71
2024-04-22T13:14:07.201Z,55.54
2024-04-22T13:16:33.728Z,55.51
2024-04-22T13:19:01.287Z,53.55
2024-04-22T13:21:29.010Z,51.92
2024-04-22T13:23:55.547Z,51.59
2024-04-22T13:26:22.061Z,52.90
2024-04-22T13:28:48.620Z,52.95
2024-04-22T13:31:15.226Z,52.49
2024-04-22T13:33:43.299Z,51.46
2024-04-22T13:36:09.913Z,50.51
2024-04-22T13:38:36.384Z,51.65
2024-04-22T13:41:02.996Z,50.25
2024-04-22T13:43:29.699Z,49.45
2024-04-22T13:45:56.287Z,48.96
2024-04-22T13:48:23.841Z,51.01
2024-04-22T13:50:50.510Z,50.00
2024-04-22T13:53:26.038Z,47.67
2024-04-22T13:55:59.128Z,48.54
2024-04-22T13:58:26.175Z,48.15
2024-04-22T14:00:52.904Z,46.09
2024-04-22T14:03:19.376Z,45.48
2024-04-22T14:05:45.906Z,46.22
2024-04-22T14:08:12.406Z,44.54
2024-04-22T14:10:38.931Z,45.73
2024-04-22T14:13:05.435Z,45.55
2024-04-22T14:15:44.423Z,43.06
2024-04-22T14:18:14.305Z,43.60
2024-04-22T14:20:40.872Z,44.17
2024-04-22T14:23:07.353Z,43.51
2024-04-22T14:25:35.569Z,43.24
2024-04-22T14:28:02.220Z,42.21
2024-04-22T14:30:28.715Z,42.38
2024-04-22T14:32:55.252Z,41.48
2024-04-22T14:35:21.821Z,41.80
2024-04-22T14:37:48.668Z,42.63
2024-04-22T14:40:15.518Z,42.37
2024-04-22T14:42:42.048Z,42.42
2024-04-22T14:45:08.751Z,43.40
2024-04-22T14:47:35.348Z,41.71
2024-04-22T14:50:01.925Z,42.35
2024-04-22T14:52:28.412Z,41.41
2024-04-22T14:54:55.263Z,42.80
2024-04-22T14:57:21.710Z,42.67
2024-04-22T14:59:48.194Z,43.02
2024-04-22T15:02:16.736Z,42.18
2024-04-22T15:04:43.295Z,42.10
2024-04-22T15:07:09.815Z,41.96
2024-04-22T15:09:46.736Z,41.32
2024-04-22T15:12:13.992Z,40.91
2024-04-22T15:14:40.470Z,41.42
2024-04-22T15:17:07.316Z,41.69
2024-04-22T15:19:34.189Z,40.19
2024-04-22T15:22:00.677Z,40.68
2024-04-22T15:24:27.226Z,40.73
2024-04-22T15:26:54.763Z,41.88
2024-04-22T15:29:21.326Z,40.88
2024-04-22T15:31:47.955Z,39.29
2024-04-22T15:34:14.465Z,38.73
2024-04-22T15:36:40.963Z,39.12
2024-04-22T15:39:08.643Z,39.20
2024-04-22T15:41:35.497Z,39.02
2024-04-22T15:44:03.324Z,39.30
2024-04-22T15:46:31.006Z,38.92
2024-04-22T15:48:57.789Z,38.08
2024-04-22T15:51:24.815Z,38.83
2024-04-22T15:53:51.326Z,38.86
2024-04-22T15:56:17.792Z,37.77
2024-04-22T15:58:44.316Z,38.46
2024-04-22T16:01:10.846Z,39.06
2024-04-22T16:03:37.426Z,38.27
2024-04-22T16:06:04.299Z,38.32
2024-04-22T16:08:32.436Z,38.16
2024-04-22T16:10:59.213Z,39.14
2024-04-22T16:13:25.999Z,39.05
2024-04-22T16:15:52.733Z,39.26
2024-04-22T16:18:19.862Z,39.21
2024-04-22T16:20:56.356Z,37.59
2024-04-22T16:23:31.556Z,38.05
2024-04-22T16:25:59.808Z,37.51
2024-04-22T16:28:26.315Z,38.06
2024-04-22T16:30:52.764Z,38.13
2024-04-22T16:33:19.382Z,37.83
2024-04-22T16:35:45.866Z,38.34
2024-04-22T16:38:12.470Z,40.32
2024-04-22T16:40:38.964Z,40.30
2024-04-22T16:43:08.462Z,40.25
2024-04-22T16:45:35.024Z,40.40
2024-04-22T16:48:01.712Z,40.49
2024-04-22T16:50:28.420Z,41.27
2024-04-22T16:52:54.936Z,41.53
2024-04-22T16:55:21.450Z,41.25
2024-04-22T16:57:47.939Z,41.38
2024-04-22T17:00:14.982Z,42.02
2024-04-22T17:02:41.627Z,41.95
2024-04-22T17:05:08.777Z,41.97
2024-04-22T17:07:35.925Z,41.16
2024-04-22T17:10:07.171Z,41.13
2024-04-22T17:12:34.183Z,41.59
2024-04-22T17:15:01.511Z,41.02
2024-04-22T17:17:28.202Z,39.80
2024-04-22T17:19:54.866Z,40.04
2024-04-22T17:22:21.411Z,40.72
2024-04-22T17:24:51.842Z,39.87
2024-04-22T17:27:21.322Z,39.66
2024-04-22T17:29:48.504Z,39.05
2024-04-22T17:32:15.536Z,39.70
2024-04-22T17:34:42.048Z,40.05
2024-04-22T17:37:08.558Z,40.71
2024-04-22T17:39:35.802Z,39.71
2024-04-22T17:42:02.284Z,40.63
2024-04-22T17:44:28.738Z,41.61
2024-04-22T17:46:55.852Z,43.35
2024-04-22T17:49:23.857Z,42.35
2024-04-22T17:51:50.760Z,41.83
2024-04-22T17:54:17.207Z,41.98
2024-04-22T17:56:47.051Z,42.08
2024-04-22T17:59:19.315Z,43.26
2024-04-22T18:01:45.886Z,43.29
2024-04-22T18:04:12.430Z,42.61
2024-04-22T18:06:38.906Z,43.06
2024-04-22T18:09:05.405Z,42.68
2024-04-22T18:11:31.994Z,42.12
2024-04-22T18:13:58.561Z,42.77
2024-04-22T18:16:25.053Z,44.08
2024-04-22T18:18:51.561Z,42.95
2024-04-22T18:21:18.017Z,42.62
2024-04-22T18:23:45.371Z,42.80
2024-04-22T18:26:14.774Z,43.26
2024-04-22T18:28:41.726Z,43.51
2024-04-22T18:31:08.190Z,43.50
2024-04-22T18:33:34.923Z,43.55
2024-04-22T18:36:01.440Z,43.93
2024-04-22T18:38:29.014Z,43.92
2024-04-22T18:40:55.675Z,43.75
2024-04-22T18:43:22.503Z,43.81
2024-04-22T18:45:49.138Z,45.00
2024-04-22T18:48:15.956Z,44.72
2024-04-22T18:50:42.520Z,45.83
2024-04-22T18:53:09.025Z,46.03
2024-04-22T18:55:35.629Z,44.98
2024-04-22T18:58:02.218Z,44.59
2024-04-22T19:00:28.704Z,44.83
2024-04-22T19:02:55.308Z,45.39
2024-04-22T19:05:22.485Z,46.55
2024-04-22T19:07:49.172Z,45.58
2024-04-22T19:10:15.709Z,46.03
2024-04-22T19:12:42.639Z,46.07
2024-04-22T19:15:09.620Z,46.56
2024-04-22T19:17:36.292Z,47.04
2024-04-22T19:20:03.062Z,47.77
2024-04-22T19:22:29.574Z,47.21
2024-04-22T19:24:56.052Z,46.88
2024-04-22T19:27:23.013Z,47.07
2024-04-22T19:29:49.550Z,47.29
2024-04-22T19:32:16.144Z,47.73
2024-04-22T19:34:45.666Z,47.29
2024-04-22T19:37:12.761Z,47.37
2024-04-22T19:39:39.228Z,47.21
2024-04-22T19:42:06.192Z,47.37
2024-04-22T19:44:32.660Z,47.69
2024-04-22T19:46:59.315Z,47.93
2024-04-22T19:49:25.959Z,48.09
2024-04-22T19:51:52.495Z,48.55
2024-04-22T19:54:19.196Z,48.25
2024-04-22T19:56:45.749Z,48.10
2024-04-22T19:59:12.252Z,48.61
2024-04-22T20:01:38.790Z,48.89
2024-04-22T20:04:05.629Z,48.80
2024-04-22T20:06:32.146Z,48.79
2024-04-22T20:08:58.619Z,49.50
2024-04-22T20:11:25.097Z,48.88
2024-04-22T20:13:51.609Z,49.18
2024-04-22T20:16:26.600Z,49.58
2024-04-22T20:19:01.964Z,48.89
2024-04-22T20:21:28.458Z,49.72
2024-04-22T20:23:55.240Z,49.57
2024-04-22T20:26:23.212Z,50.04
2024-04-22T20:28:53.036Z,50.01
2024-04-22T20:31:21.116Z,50.82
2024-04-22T20:33:47.804Z,50.48
2024-04-22T20:36:14.400Z,50.42
2024-04-22T20:38:40.924Z,50.50
2024-04-22T20:41:07.532Z,50.03
2024-04-22T20:43:34.625Z,50.03
2024-04-22T20:46:01.797Z,50.21
2024-04-22T20:48:33.138Z,50.73
2024-04-22T20:51:03.938Z,50.59
2024-04-22T20:53:31.536Z,51.14
2024-04-22T20:56:03.131Z,51.47
2024-04-22T20:58:30.658Z,51.67
2024-04-22T21:01:05.012Z,51.92
2024-04-22T21:03:32.037Z,52.82
2024-04-22T21:05:59.956Z,52.96
2024-04-22T21:08:27.593Z,52.65
2024-04-22T21:10:55.196Z,52.48
2024-04-22T21:13:22.397Z,52.33
2024-04-22T21:15:49.075Z,52.21
2024-04-22T21:18:18.931Z,52.76
2024-04-22T21:20:47.694Z,52.58
2024-04-22T21:23:15.841Z,53.13
2024-04-22T21:25:42.349Z,53.72
2024-04-22T21:28:08.815Z,53.15
2024-04-22T21:30:35.310Z,53.38
2024-04-22T21:33:18.179Z,53.43
2024-04-22T21:35:48.550Z,53.34
2024-04-22T21:38:16.867Z,53.58
2024-04-22T21:40:43.966Z,53.16
2024-04-22T21:43:10.473Z,53.01
2024-04-22T21:45:37.300Z,53.54
2024-04-22T21:48:03.963Z,53.71
2024-04-22T21:50:30.458Z,53.58
2024-04-22T21:52:56.977Z,53.63
2024-04-22T21:55:35.709Z,53.23
2024-04-22T21:58:40.051Z,54.03
2024-04-22T22:01:44.327Z,54.29
2024-04-22T22:04:48.470Z,53.62
2024-04-22T22:07:15.098Z,53.78
2024-04-22T22:09:41.552Z,54.25
2024-04-22T22:12:08.163Z,54.28
2024-04-22T22:14:35.232Z,55.28
2024-04-22T22:17:01.970Z,55.19
2024-04-22T22:19:29.145Z,54.84
2024-04-22T22:21:55.662Z,54.71
2024-04-22T22:24:22.107Z,54.82
2024-04-22T22:26:48.554Z,54.33
2024-04-22T22:29:15.012Z,54.76
2024-04-22T22:31:41.563Z,54.54
2024-04-22T22:34:08.078Z,54.50
2024-04-22T22:36:34.588Z,53.46
2024-04-22T22:39:01.035Z,53.31
2024-04-22T22:41:29.380Z,53.29
2024-04-22T22:43:55.896Z,52.75
2024-04-22T22:46:22.434Z,53.20
2024-04-22T22:48:48.905Z,53.24
2024-04-22T22:51:15.375Z,53.01
2024-04-22T22:53:41.852Z,52.95
2024-04-22T22:56:08.674Z,53.11
2024-04-22T22:58:35.159Z,52.72
2024-04-22T23:01:01.803Z,52.81
2024-04-22T23:03:28.318Z,53.21
2024-04-22T23:05:54.794Z,53.09
2024-04-22T23:08:21.231Z,53.96
2024-04-22T23:10:47.701Z,53.73
2024-04-22T23:13:14.735Z,53.39
2024-04-22T23:15:41.243Z,53.80
2024-04-22T23:18:08.450Z,53.57
2024-04-22T23:20:34.944Z,52.81
2024-04-22T23:23:01.461Z,53.09
2024-04-22T23:25:27.989Z,53.02
2024-04-22T23:27:54.476Z,53.29
2024-04-22T23:30:20.923Z,53.92
2024-04-22T23:32:47.561Z,54.09
2024-04-22T23:35:14.121Z,54.69
2024-04-22T23:37:40.646Z,54.19
2024-04-22T23:40:07.663Z,53.52
2024-04-22T23:42:34.132Z,53.99
2024-04-22T23:45:00.669Z,53.88
2024-04-22T23:47:27.168Z,53.92
2024-04-22T23:49:53.713Z,53.88
2024-04-22T23:52:20.200Z,54.17
2024-04-22T23:54:46.672Z,53.63
2024-04-22T23:57:13.127Z,53.25
2024-04-22T23:59:39.618Z,53.59
